Tiempo atmosférico en la estación meteorológica de San Pedro Manrique, Soria (1096 m.)



Fecha
DESCASC
Temp. máxima en grados centígrados (hora)
DESCASC
Temp. mínima en grados centígrados (hora)
DESCASC
Temp. media en grados centígrados
DESCASC
Racha de viento máxima en m/sg (hora)
DESCASC
Velocidad máxima media en intervalos de 10 minutos(hora)
DESCASC
Precipitaciones diarias en mm
DESCASC
Precipitaciones de 00:00 a 06:00 en mm
DESCASC
Precipitaciones de 06:00 a 12:00 en mm
DESCASC
Precipitaciones de 12:00 a 18:00 en mm
DESCASC
Precipitaciones de 18:00 a 24:00 en mm
DESCASC
05-04-2020 16.7 (18:50) 5.3 (04:50) 11 9.72 (08:50) 5.28 (17:20) 0 0 0 0 0
04-04-2020 15.6 (16:30) -3.4 (07:50) 6.1 10 (16:00) 6.11 (16:20) 0 0 0 0 0
03-04-2020 12.7 (16:50) -2.4 (08:20) 5.1 6.94 (02:10) 4.17 (02:20) 0 0 0 0 0
02-04-2020 9 (14:10) 2.6 (00:00) 5.8 10.28 (14:00) 5 (17:30) 2.4 1.6 0.8 0 0
01-04-2020 6.5 (15:10) 0.8 (00:00) 3.7 9.72 (00:20) 4.72 (00:30) 16.8 4.2 11.8 0.6 0.2
31-03-2020 3.7 (22:40) -2.9 (-00:0) 0.4 11.11 (21:50) 6.11 (21:50) 18 0 1.6 11.4 5
30-03-2020 3.8 (00:00) -1.5 (-00:0) 1.1 11.11 (12:10) 5.56 (09:10) 0 0 0 0 0
29-03-2020 11.4 (15:00) -2.7 (-00:0) 4.3 10.83 (15:10) 6.94 (16:40) 0 0 0 0 0
28-03-2020 13.2 (16:50) -4.4 (-00:0) 4.4 6.67 (14:50) 3.06 (14:50) 0 0 0 0 0
27-03-2020 8.4 (15:30) -3.9 (-00:0) 2.2 6.94 (14:50) 3.61 (14:00) 0 0 0 0 0
26-03-2020 6 (15:30) -0.1 (00:00) 2.9 13.33 (13:30) 7.78 (15:10) 0 0 0 0 0
25-03-2020 10.6 (17:50) -0.8 (-00:0) 4.9 8.06 (12:40) 4.72 (13:20) 0 0 0 0 0
24-03-2020 10.6 (16:00) 3.4 (00:00) 7 6.39 (16:10) 3.61 (15:40) 0.8 0.8 0 0 0
23-03-2020 9.3 (15:40) 1.2 (00:00) 5.3 7.22 (15:50) 3.61 (13:10) 1.6 0.4 0.4 0.6 0.2
22-03-2020 10.8 (16:10) 2.1 (22:40) 6.5 7.5 (15:10) 3.61 (17:10) 0 0 0 0 0
21-03-2020 10.9 (17:00) 0.7 (00:00) 5.8 8.33 (14:00) 3.61 (14:40) 0 0 0 0 0
20-03-2020 11.9 (14:00) -1.6 (-00:0) 5.1 7.22 (15:00) 4.72 (15:00) 0 0 0 0 0
19-03-2020 13.4 (13:50) 0.8 (00:00) 7.1 6.94 (13:20) 4.17 (13:20) 0 0 0 0 0
18-03-2020 14.9 (14:50) 0.6 (00:00) 7.7 5 (17:30) 3.33 (17:20) 0 0 0 0 0
17-03-2020 6.7 (18:50) 2.7 (00:00) 4.7 5.28 (05:10) 2.78 (04:40) 8.4 5.4 2.8 0.2 0
16-03-2020 5.8 (00:00) 0.2 (00:00) 3 9.17 (20:20) 5.83 (20:20) 65.8 13.6 2.4 15.8 34
15-03-2020 16.8 (14:00) -1 (-00:0) 7.9 12.5 (19:20) 6.39 (19:30) 16 0 0 4.2 11.8
14-03-2020 14.9 (15:50) -1.8 (-00:0) 6.5 5.83 (15:40) 3.06 (12:50) 0 0 0 0 0
13-03-2020 11.9 (15:00) 5.7 (23:59) 8.8 7.22 (07:10) 3.61 (17:00) 0 0 0 0 0
12-03-2020 22.7 (14:50) 6.3 (00:00) 14.5 8.33 (13:40) 5 (15:10) 0 0 0 0 0
11-03-2020 22.7 (16:20) -0.4 (00:00) 11.2 9.17 (16:00) 5.28 (16:30) 0 0 0 0 0
10-03-2020 20.5 (14:40) 3.3 (00:00) 11.9 7.22 (17:10) 5 (17:10) 0 0 0 0 0

Gráficas

Temp. máximas Temp. mínimas Temp. medias Precipitaciones Rachas de viento máximas Velocidades máximas media en intervalos de 10 minutos

Datos horarios

Fecha y hora oficial Temperatura (ºC) Velocidad del viento (km/h) Dirección del viento Racha (km/h) Dirección de racha Precipitación (mm) Presión (hPa) Tendencia (hPa) Humedad (%)
2020-04-08 23:00:00 9.7 3 Sudeste 7 Sudeste 0 -- -- 86
2020-04-08 22:00:00 11 0 Calma 5 Nordeste 0 -- -- 85
2020-04-08 21:00:00 11.5 0 Calma 13 Sudeste 0 -- -- 83
2020-04-08 20:00:00 12 9 Sudeste 18 Sudeste 0 -- -- 82
2020-04-08 19:00:00 13.3 5 Nordeste 11 Nordeste 0 -- -- 76
2020-04-08 18:00:00 13.6 3 Sudeste 9 Sudoeste 0 -- -- 67
2020-04-08 17:00:00 13.5 5 Sudeste 12 Nordeste 0 -- -- 71
2020-04-08 16:00:00 12.9 6 Oeste 15 Nordeste 0 -- -- 74
2020-04-08 15:00:00 11.7 10 Nordeste 20 Nordeste 0.4 -- -- 85
2020-04-08 14:00:00 11.5 9 Nordeste 23 Nordeste 2.2 -- -- 84
2020-04-08 13:00:00 12.6 13 Sudeste 24 Sudeste 0 -- -- 78
2020-04-08 12:00:00 12 12 Sudeste 19 Sudeste 0 -- -- 85
2020-04-08 11:00:00 10.8 2 Sudeste 8 Sudeste 0 -- -- 93
2020-04-08 10:00:00 8.7 0 Calma 5 Nordeste 0.2 -- -- 93
2020-04-08 09:00:00 7.8 3 Nordeste 10 Nordeste 0 -- -- 92
2020-04-08 08:00:00 8 6 Nordeste 9 Nordeste 0 -- -- 91
2020-04-08 07:00:00 8.1 4 Norte 9 Norte 0 -- -- 91
2020-04-08 06:00:00 8.4 2 Noroeste 9 Sudeste 0 -- -- 89
2020-04-08 05:00:00 8.8 5 Sur 7 Sur 0 -- -- 89
2020-04-08 04:00:00 9 3 Sudeste 9 Sur 0 -- -- 89
2020-04-08 03:00:00 9.2 3 Sudeste 7 Sur 0 -- -- 90
2020-04-08 02:00:00 8.7 0 Calma 4 Sudoeste 0 -- -- 91
2020-04-08 01:00:00 9.1 0 Calma 5 Noroeste 0 -- -- 91
2020-04-08 00:00:00 9.1 0 Calma 5 Este 0 -- -- 91
2020-04-07 23:00:00 9.1 2 Nordeste 6 Nordeste 0 -- -- 90
2020-04-07 22:00:00 9.2 0 Calma 12 Sudeste 0 -- -- 91
2020-04-07 21:00:00 9 5 Nordeste 11 Nordeste 0 -- -- 91
2020-04-07 20:00:00 9.1 8 Nordeste 14 Nordeste 0 -- -- 91
2020-04-07 19:00:00 9.3 7 Nordeste 18 Sudeste 0.2 -- -- 91
2020-04-07 18:00:00 9 5 Nordeste 21 Norte 1.4 -- -- 91
2020-04-07 17:00:00 8.8 12 Nordeste 23 Nordeste 0 -- -- 91
2020-04-07 16:00:00 9.6 14 Nordeste 27 Nordeste 0 -- -- 89
2020-04-07 15:00:00 10.8 11 Nordeste 18 Nordeste 0 -- -- 85
2020-04-07 14:00:00 12.8 9 Sudeste 20 Sudeste 0 -- -- 77
2020-04-07 13:00:00 12.7 10 Sudeste 18 Sudeste 0 -- -- 76
2020-04-07 12:00:00 10.6 9 Sudeste 18 Sudeste 0 -- -- 85
2020-04-07 11:00:00 9.8 4 Este 10 Sudeste 0 -- -- 89
2020-04-07 10:00:00 9.5 5 Sudeste 9 Sudeste 0.4 -- -- 90
2020-04-07 09:00:00 9 5 Sudeste 13 Sudeste 1.2 -- -- 91
2020-04-07 08:00:00 8.7 5 Sudeste 12 Sudeste 0 -- -- 91
2020-04-07 07:00:00 8.6 3 Sudeste 6 Sur 0 -- -- 91
2020-04-07 06:00:00 8.6 0 Calma 4 Sudeste 0 -- -- 91
2020-04-07 05:00:00 8.6 3 Sudeste 6 Sudeste 0 -- -- 91
2020-04-07 04:00:00 8.7 3 Nordeste 5 Nordeste 0 -- -- 91
2020-04-07 03:00:00 8.8 0 Calma 8 Nordeste 0 -- -- 91
2020-04-07 02:00:00 8.9 5 Nordeste 9 Nordeste 0 -- -- 90
2020-04-07 01:00:00 8.9 3 Norte 6 Nordeste 0 -- -- 90
2020-04-07 00:00:00 9 0 Calma 6 Este 0 -- -- 90
2020-04-06 23:00:00 9.1 4 Nordeste 12 Norte 0 -- -- 91
2020-04-06 22:00:00 9.2 4 Nordeste 12 Nordeste 0.2 -- -- 91
2020-04-06 21:00:00 9.3 3 Nordeste 26 Nordeste 2.6 -- -- 91
2020-04-06 20:00:00 9.6 7 Norte 18 Nordeste 0.2 -- -- 90
2020-04-06 19:00:00 9.9 9 Norte 23 Nordeste 0.4 -- -- 87
2020-04-06 18:00:00 10.4 11 Nordeste 26 Nordeste 0 -- -- 84
2020-04-06 17:00:00 10.6 12 Nordeste 24 Sudeste 0 -- -- 81
2020-04-06 16:00:00 12.8 13 Sudeste 24 Este 0 -- -- 74
2020-04-06 15:00:00 13.4 12 Sudeste 21 Sudeste 0 -- -- 73
2020-04-06 14:00:00 10.6 10 Norte 22 Nordeste 0 -- -- 79
2020-04-06 13:00:00 11.5 4 Norte 13 Sudeste 0 -- -- 75
2020-04-06 12:00:00 10.8 6 Sudeste 26 Sur 0 -- -- 82
2020-04-06 11:00:00 10.9 10 Sur 27 Sur 0 -- -- 80
2020-04-06 10:00:00 10.1 11 Sur 23 Sur 0 -- -- 81
2020-04-06 09:00:00 9.7 12 Sur 22 Sur 0 -- -- 84
2020-04-06 08:00:00 8.6 10 Sur 15 Sudeste 0 -- -- 85
2020-04-06 07:00:00 8.5 7 Sudeste 15 Sur 0 -- -- 85
2020-04-06 06:00:00 8.7 6 Sudeste 12 Sudeste 0 -- -- 82
2020-04-06 05:00:00 8.6 7 Sudeste 11 Sudeste 0 -- -- 81
2020-04-06 04:00:00 8.8 5 Sudeste 10 Sudeste 0 -- -- 80
2020-04-06 03:00:00 8.5 3 Norte 13 Sudeste 0 -- -- 79
2020-04-06 02:00:00 9.4 6 Sudeste 13 Sudeste 0 -- -- 75
2020-04-06 01:00:00 9.4 6 Sudeste 14 Sudeste 0 -- -- 75
2020-04-06 00:00:00 9.4 6 Sudeste 9 Sudeste 0 -- -- 75
2020-04-05 23:00:00 9.6 7 Sudeste 10 Sudeste 0 -- -- 74
2020-04-05 22:00:00 10.1 0 Calma 9 Sudoeste 0 -- -- 70
2020-04-05 21:00:00 11.7 3 Sudoeste 21 Sur 0 -- -- 60
2020-04-05 20:00:00 13.9 12 Sur 30 Sur 0 -- -- 55
2020-04-05 19:00:00 16.5 14 Sur 30 Sur 0 -- -- 47
2020-04-05 18:00:00 16.3 16 Sur 29 Sur 0 -- -- 49
2020-04-05 17:00:00 15.3 15 Sur 33 Sudoeste 0 -- -- 51
2020-04-05 16:00:00 14.8 18 Sudeste 29 Sudoeste 0 -- -- 53
2020-04-05 15:00:00 14.2 15 Sur 30 Sur 0 -- -- 55
2020-04-05 14:00:00 13.7 14 Sur 27 Sur 0 -- -- 57
2020-04-05 13:00:00 12 14 Sur 25 Sur 0 -- -- 64
2020-04-05 12:00:00 11.3 15 Sur 28 Sur 0 -- -- 65
2020-04-05 11:00:00 9.5 8 Sur 25 Sur 0 -- -- 70
2020-04-05 10:00:00 8.4 8 Sudoeste 29 Sur 0 -- -- 72
2020-04-05 09:00:00 7.2 15 Sur 35 Sudoeste 0 -- -- 75
2020-04-05 08:00:00 6.4 5 Sudeste 19 Sur 0 -- -- 79
2020-04-05 07:00:00 5.8 5 Sudeste 12 Sudeste 0 -- -- 80
2020-04-05 06:00:00 5.9 7 Sudeste 15 Sudeste 0 -- -- 79
2020-04-05 05:00:00 5.4 8 Sudeste 15 Sur 0 -- -- 81
2020-04-05 04:00:00 5.6 7 Sudeste 14 Sudeste 0 -- -- 80
2020-04-05 03:00:00 6 9 Sudeste 13 Sudeste 0 -- -- 79
2020-04-05 02:00:00 6.6 3 Sudoeste 11 Sur 0 -- -- 79
2020-04-05 01:00:00 6.2 8 Sudeste 17 Sudeste 0 -- -- 81
2020-04-05 00:00:00 7.1 8 Sur 12 Sur 0 -- -- 79
2020-04-04 23:00:00 7.7 0 Calma 10 Nordeste 0 -- -- 75
2020-04-04 22:00:00 9.3 6 Nordeste 15 Nordeste 0 -- -- 68
2020-04-04 21:00:00 10 4 Este 31 Este 0 -- -- 63
2020-04-04 20:00:00 11.5 15 Este 27 Este 0 -- -- 60
2020-04-04 19:00:00 13.6 17 Este 30 Este 0 -- -- 54
2020-04-04 18:00:00 15 14 Sudeste 26 Sudeste 0 -- -- 46
2020-04-04 17:00:00 15.4 16 Sudeste 35 Sur 0 -- -- 40
2020-04-04 16:00:00 15.4 19 Sudeste 36 Sur 0 -- -- 28
2020-04-04 15:00:00 14.7 17 Sudeste 33 Sudeste 0 -- -- 33
2020-04-04 14:00:00 13.7 19 Sur 31 Sudeste 0 -- -- 35
2020-04-04 13:00:00 13 15 Sudeste 27 Sudeste 0 -- -- 41
2020-04-04 12:00:00 11.3 19 Sur 28 Sur 0 -- -- 42
2020-04-04 11:00:00 9.6 12 Sudeste 19 Sudeste 0 -- -- 53
2020-04-04 10:00:00 2.6 0 Calma 4 Sudoeste 0 -- -- 82
2020-04-04 09:00:00 -1.9 0 Calma 5 Este 0 -- -- 87
2020-04-04 08:00:00 -3.1 4 Sudoeste 6 Sudoeste 0 -- -- 87
2020-04-04 07:00:00 -2.7 0 Calma 4 Sudoeste 0 -- -- 87
2020-04-04 06:00:00 -2.7 0 Calma 2 Este 0 -- -- 85
2020-04-04 05:00:00 -2.2 0 Calma 3 Sur 0 -- -- 85
2020-04-04 04:00:00 -1.6 0 Calma 4 Sudoeste 0 -- -- 85
2020-04-04 03:00:00 -1.3 0 Calma 4 Sur 0 -- -- 85
2020-04-04 02:00:00 -0.8 0 Calma 4 Sudoeste 0 -- -- 84
2020-04-04 01:00:00 0.1 0 Calma 3 Sudoeste 0 -- -- 83
2020-04-04 00:00:00 1 0 Calma 5 Sudoeste 0 -- -- 81
2020-04-03 23:00:00 2.4 0 Calma 6 Sudoeste 0 -- -- 78
2020-04-03 22:00:00 4.5 0 Calma 6 Norte 0 -- -- 70
2020-04-03 21:00:00 7.5 2 Nordeste 10 Nordeste 0 -- -- 59
2020-04-03 20:00:00 9.7 5 Nordeste 13 Nordeste 0 -- -- 49
2020-04-03 19:00:00 11.7 10 Norte 19 Norte 0 -- -- 42
2020-04-03 18:00:00 12.4 9 Nordeste 16 Nordeste 0 -- -- 42
2020-04-03 17:00:00 12.6 9 Nordeste 19 Nordeste 0 -- -- 39
2020-04-03 16:00:00 11.9 5 Sudeste 15 Nordeste 0 -- -- 35
2020-04-03 15:00:00 10.6 10 Norte 17 Nordeste 0 -- -- 38
2020-04-03 14:00:00 9.5 6 Nordeste 17 Este 0 -- -- 40
2020-04-03 13:00:00 8.3 3 Este 10 Este 0 -- -- 43
2020-04-03 12:00:00 6.7 4 Este 15 Norte 0 -- -- 43
2020-04-03 11:00:00 4.8 2 Este 6 Sudeste 0 -- -- 49
2020-04-03 10:00:00 1.8 0 Calma 8 Sudeste 0 -- -- 66
2020-04-03 09:00:00 -1.7 0 Calma 5 Sudeste 0 -- -- 76
2020-04-03 08:00:00 -2 0 Calma 18 Oeste 0 -- -- 75
2020-04-03 07:00:00 -0.8 7 Noroeste 19 Noroeste 0 -- -- 71
2020-04-03 06:00:00 -0.3 6 Noroeste 15 Oeste 0 -- -- 68
2020-04-03 05:00:00 -0.5 0 Calma 11 Oeste 0 -- -- 71
2020-04-03 04:00:00 0.5 5 Noroeste 16 Oeste 0 -- -- 69
2020-04-03 03:00:00 0.6 7 Oeste 25 Oeste 0 -- -- 72
2020-04-03 02:00:00 0.8 6 Sudoeste 21 Oeste 0 -- -- 75
2020-04-03 01:00:00 1.5 3 Norte 12 Sudoeste 0 -- -- 75
2020-04-03 00:00:00 2.6 2 Nordeste 30 Noroeste 0 -- -- 73
2020-04-02 23:00:00 3.5 12 Noroeste 27 Noroeste 0 -- -- 75
2020-04-02 22:00:00 4.5 9 Noroeste 33 Norte 0 -- -- 68
2020-04-02 21:00:00 6 13 Norte 28 Noroeste 0 -- -- 70
2020-04-02 20:00:00 6.7 13 Noroeste 27 Noroeste 0 -- -- 68
2020-04-02 19:00:00 6.9 15 Noroeste 30 Noroeste 0 -- -- 68
2020-04-02 18:00:00 7 11 Noroeste 32 Noroeste 0 -- -- 71
2020-04-02 17:00:00 7.4 12 Noroeste 37 Noroeste 0 -- -- 70
2020-04-02 16:00:00 7.5 17 Norte 35 Noroeste 0 -- -- 68
2020-04-02 15:00:00 8 15 Norte 34 Norte 0 -- -- 69
2020-04-02 14:00:00 8.8 15 Norte 37 Noroeste 0 -- -- 69
2020-04-02 13:00:00 7 15 Norte 31 Norte 0 -- -- 74
2020-04-02 12:00:00 6.9 15 Norte 30 Noroeste 0 -- -- 74
2020-04-02 11:00:00 6.2 12 Norte 23 Norte 0 -- -- 79
2020-04-02 10:00:00 4.8 11 Norte 26 Noroeste 0.2 -- -- 84
2020-04-02 09:00:00 3.8 2 Nordeste 9 Noroeste 0.4 -- -- 89
2020-04-02 08:00:00 3.5 0 Calma 4 Sudeste 0.2 -- -- 89
2020-04-02 07:00:00 3.4 0 Calma -- -- 0 -- -- 89
2020-04-02 06:00:00 3.4 0 Calma 5 Oeste 0 -- -- 89
2020-04-02 05:00:00 3.6 0 Calma 3 Oeste 0.2 -- -- 90
2020-04-02 04:00:00 3.9 0 Calma 4 Oeste 0.8 -- -- 89
2020-04-02 03:00:00 3.9 0 Calma 4 Sudoeste 0.4 -- -- 89
2020-04-02 02:00:00 3.9 0 Calma 6 Sudoeste 0.2 -- -- 89
2020-04-02 01:00:00 4.1 0 Calma 6 Sudoeste 0 -- -- 89
2020-04-02 00:00:00 4.2 0 Calma 7 Noroeste 0 -- -- 88
2020-04-01 23:00:00 4.4 4 Oeste 6 Oeste 0 -- -- 88
2020-04-01 22:00:00 4.7 0 Calma 4 Nordeste 0 -- -- 87
2020-04-01 21:00:00 4.8 0 Calma 9 Este 0 -- -- 85
2020-04-01 20:00:00 5 3 Este 12 Nordeste 0 -- -- 85
2020-04-01 19:00:00 5.4 3 Nordeste 12 Nordeste 0.2 -- -- 86
2020-04-01 18:00:00 5.3 8 Este 15 Este 0 -- -- 86
2020-04-01 17:00:00 5.3 8 Este 15 Este 0 -- -- 86
2020-04-01 16:00:00 6 5 Nordeste 11 Nordeste 0 -- -- 82
2020-04-01 15:00:00 6.4 2 Sur 11 Sur 0 -- -- 81
2020-04-01 14:00:00 5.2 3 Sur 8 Sur 0.2 -- -- 84
2020-04-01 13:00:00 4.2 3 Sudeste 6 Sudeste 0.4 -- -- 85
2020-04-01 12:00:00 2.6 0 Calma 2 Sur 2.2 -- -- 88
2020-04-01 11:00:00 1.4 0 Calma 2 Sur 0.6 -- -- 89
2020-04-01 10:00:00 0.9 0 Calma 2 Sur 1.2 -- -- 88
2020-04-01 09:00:00 1.1 0 Calma 8 Noroeste 2 -- -- 88
2020-04-01 08:00:00 2 3 Oeste 15 Sudeste 3.4 -- -- 86
2020-04-01 07:00:00 3.2 4 Sur 20 Sudeste 2.4 -- -- 88
2020-04-01 06:00:00 3.4 0 Calma 14 Este 2.4 -- -- 88
2020-04-01 05:00:00 3.7 8 Este 20 Este 0.4 -- -- 89
2020-04-01 04:00:00 3.4 6 Sudeste 15 Sudeste 0.6 -- -- 89
2020-04-01 03:00:00 3.5 6 Sudeste 23 Este 0.4 -- -- 88
2020-04-01 02:00:00 3.7 14 Este 29 Este 0.2 -- -- 88
2020-04-01 01:00:00 3.7 15 Sudeste 35 Este 0.2 -- -- 88
2020-04-01 00:00:00 3.4 10 Sudeste 37 Este 0 -- -- 88
2020-03-31 23:00:00 3.6 15 Este 35 Este 0.4 -- -- 86
2020-03-31 22:00:00 3.6 18 Este 40 Este 0 -- -- 88
2020-03-31 21:00:00 3.1 10 Sudeste 28 Sudeste 0.6 -- -- 87
2020-03-31 20:00:00 2.9 11 Sudeste 23 Sudeste 1.4 -- -- 87
2020-03-31 19:00:00 3 10 Sudeste 27 Este 2.6 -- -- 86
2020-03-31 18:00:00 3 12 Sudeste 22 Este 3.2 -- -- 84
2020-03-31 17:00:00 2.3 8 Sudeste 17 Sudeste 3 -- -- 83
2020-03-31 16:00:00 1.5 4 Oeste 8 Oeste 1.4 -- -- 84
2020-03-31 15:00:00 1.5 0 Calma 4 Noroeste 1.2 -- -- 84
2020-03-31 14:00:00 1.7 0 Calma 6 Nordeste 1.2 -- -- 80
2020-03-31 13:00:00 0.6 0 Calma 6 Este 1.4 -- -- 83
2020-03-31 12:00:00 0.1 0 Calma 3 Sudeste 1.6 -- -- 81
2020-03-31 11:00:00 -0.5 0 Calma 2 Este 0 -- -- 82
2020-03-31 10:00:00 -1.8 0 Calma 2 Este 0 -- -- 86
2020-03-31 09:00:00 -2.5 0 Calma 2 Norte 0 -- -- 87
2020-03-31 08:00:00 -2.9 0 Calma 4 Nordeste 0 -- -- 87
2020-03-31 07:00:00 -2.9 0 Calma 4 Nordeste 0 -- -- 86
2020-03-31 06:00:00 -2.9 2 Nordeste 6 Nordeste 0 -- -- 86
2020-03-31 05:00:00 -2.8 3 Nordeste 10 Norte 0 -- -- 85
2020-03-31 04:00:00 -2.6 5 Norte 12 Norte 0 -- -- 84
2020-03-31 03:00:00 -2 4 Nordeste 8 Nordeste 0 -- -- 85
2020-03-31 02:00:00 -1.9 3 Nordeste 9 Nordeste 0 -- -- 81
2020-03-31 01:00:00 -1.5 6 Norte 12 Nordeste 0 -- -- 74
2020-03-31 00:00:00 -1.4 5 Nordeste 17 Norte 0 -- -- 72
2020-03-30 23:00:00 -1.2 6 Nordeste 17 Norte 0 -- -- 71
2020-03-30 22:00:00 -1.2 8 Norte 27 Norte 0 -- -- 71
2020-03-30 21:00:00 -0.3 7 Norte 24 Norte 0 -- -- 68
2020-03-30 20:00:00 0.3 8 Norte 24 Norte 0 -- -- 60
2020-03-30 19:00:00 1.1 9 Norte 24 Norte 0 -- -- 51
2020-03-30 18:00:00 1.7 11 Norte 28 Noroeste 0 -- -- 53
2020-03-30 17:00:00 2.1 14 Norte 27 Norte 0 -- -- 50
2020-03-30 16:00:00 1.6 11 Norte 23 Nordeste 0 -- -- 52
2020-03-30 15:00:00 1.5 10 Noroeste 27 Noroeste 0 -- -- 54
2020-03-30 14:00:00 0.7 14 Norte 32 Norte 0 -- -- 54
2020-03-30 13:00:00 0.1 15 Noroeste 40 Noroeste 0 -- -- 59
2020-03-30 12:00:00 -0.5 12 Noroeste 33 Noroeste 0 -- -- 64
2020-03-30 11:00:00 -0.5 15 Noroeste 28 Noroeste 0 -- -- 62
2020-03-30 10:00:00 -1.1 15 Noroeste 38 Noroeste 0 -- -- 63
2020-03-30 09:00:00 -1.5 13 Noroeste 30 Noroeste 0 -- -- 66
2020-03-30 08:00:00 -1.4 14 Noroeste 28 Noroeste 0 -- -- 69
2020-03-30 07:00:00 -0.9 9 Norte 28 Noroeste 0 -- -- 67
2020-03-30 06:00:00 -0.6 15 Noroeste 31 Norte 0 -- -- 72
2020-03-30 05:00:00 -0.2 16 Noroeste 35 Norte 0 -- -- 77
2020-03-30 04:00:00 0.4 19 Noroeste 36 Noroeste 0 -- -- 82
2020-03-30 03:00:00 1.5 13 Noroeste 35 Noroeste 0 -- -- 77
2020-03-30 02:00:00 2.6 15 Noroeste 30 Oeste 0 -- -- 77
2020-03-30 01:00:00 3.4 18 Noroeste 36 Noroeste 0 -- -- 74
2020-03-30 00:00:00 3.8 14 Noroeste 29 Noroeste 0 -- -- 74
2020-03-29 23:00:00 3.9 8 Noroeste 31 Noroeste 0 -- -- 74
2020-03-29 22:00:00 4.9 12 Noroeste 31 Noroeste 0 -- -- 73
2020-03-29 21:00:00 5.8 9 Noroeste 30 Noroeste 0 -- -- 69
2020-03-29 20:00:00 6.6 12 Noroeste 27 Noroeste 0 -- -- 67
2020-03-29 19:00:00 7.7 13 Norte 38 Norte 0 -- -- 61
2020-03-29 18:00:00 9.6 14 Norte 35 Noroeste 0 -- -- 51
2020-03-29 17:00:00 10.5 21 Noroeste 37 Noroeste 0 -- -- 40
2020-03-29 16:00:00 11.2 16 Norte 39 Noroeste 0 -- -- 34
2020-03-29 15:00:00 11.4 16 Noroeste 31 Noroeste 0 -- -- 35
2020-03-29 14:00:00 11.2 13 Norte 28 Norte 0 -- -- 35
2020-03-29 13:00:00 10.3 13 Norte 28 Nordeste 0 -- -- 39
2020-03-29 12:00:00 9.6 11 Nordeste 22 Nordeste 0 -- -- 42
2020-03-29 11:00:00 7.6 5 Nordeste 12 Nordeste 0 -- -- 47
2020-03-29 10:00:00 1.8 2 Sudeste 4 Este 0 -- -- 84
2020-03-29 09:00:00 -1.9 0 Calma 2 Sudeste 0 -- -- 87
2020-03-29 08:00:00 -2.6 0 Calma 4 Sur 0 -- -- 86
2020-03-29 07:00:00 -2.3 0 Calma 0 Calma 0 -- -- 85
2020-03-29 06:00:00 -1.8 0 Calma 0 Calma 0 -- -- 86
2020-03-29 05:00:00 -1.6 0 Calma 4 Sudoeste 0 -- -- 84
2020-03-29 03:00:00 -0.6 0 Calma 2 Sudoeste 0 -- -- 82
2020-03-29 01:00:00 0.1 0 Calma 2 Sudoeste 0 -- -- 82
2020-03-29 00:00:00 0.9 0 Calma 4 Sur 0 -- -- 80
2020-03-28 23:00:00 1.8 2 Sudeste 5 Sur 0 -- -- 77
2020-03-28 22:00:00 3.1 2 Sudoeste 4 Sudoeste 0 -- -- 74
2020-03-28 21:00:00 4.5 0 Calma 6 Sudoeste 0 -- -- 70
2020-03-28 20:00:00 7.9 0 Calma 9 Este 0 -- -- 58
2020-03-28 19:00:00 10.2 4 Nordeste 17 Nordeste 0 -- -- 47
2020-03-28 18:00:00 11.9 11 Este 20 Norte 0 -- -- 43
2020-03-28 17:00:00 12.9 8 Norte 18 Nordeste 0 -- -- 40
2020-03-28 16:00:00 12.8 7 Nordeste 22 Este 0 -- -- 41
2020-03-28 15:00:00 12.6 9 Este 24 Nordeste 0 -- -- 43
2020-03-28 14:00:00 12.6 8 Este 18 Este 0 -- -- 41
2020-03-28 13:00:00 11.3 4 Sur 14 Nordeste 0 -- -- 45
2020-03-28 12:00:00 10.6 3 Sudoeste 11 Oeste 0 -- -- 46
2020-03-28 11:00:00 9.3 3 Sudoeste 9 Sudoeste 0 -- -- 46
2020-03-28 10:00:00 5.5 0 Calma 3 Sudeste 0 -- -- 67
2020-03-28 09:00:00 0.1 2 Sudeste 3 Este 0 -- -- 81
2020-03-28 08:00:00 -3.5 0 Calma 3 Este 0 -- -- 84
2020-03-28 07:00:00 -4.4 0 Calma 2 Sudoeste 0 -- -- 84
2020-03-28 06:00:00 -4.2 0 Calma 3 Sudoeste 0 -- -- 83
2020-03-28 05:00:00 -3.9 0 Calma 2 Sur 0 -- -- 82
2020-03-28 04:00:00 -3.7 0 Calma 3 Sudoeste 0 -- -- 82
2020-03-28 03:00:00 -3.4 0 Calma 2 Sudeste 0 -- -- 81
2020-03-28 02:00:00 -3.1 0 Calma 3 Sudoeste 0 -- -- 81
2020-03-28 01:00:00 -2.8 0 Calma 6 Sudoeste 0 -- -- 80
2020-03-28 00:00:00 -2 0 Calma 4 Oeste 0 -- -- 77
2020-03-27 23:00:00 -1.5 0 Calma 4 Sudeste 0 -- -- 77
2020-03-27 22:00:00 -0.6 2 Sur 4 Sudeste 0 -- -- 73
2020-03-27 21:00:00 1.2 0 Calma 5 Sudoeste 0 -- -- 68
2020-03-27 20:00:00 4.4 0 Calma 17 Este 0 -- -- 55
2020-03-27 19:00:00 6.4 6 Nordeste 15 Nordeste 0 -- -- 41
2020-03-27 18:00:00 8.4 8 Nordeste 17 Nordeste 0 -- -- 34
2020-03-27 17:00:00 8.3 8 Norte 23 Este 0 -- -- 42
2020-03-27 16:00:00 8.2 8 Norte 22 Este 0 -- -- 41
2020-03-27 15:00:00 7.9 9 Nordeste 25 Este 0 -- -- 40
2020-03-27 14:00:00 7 13 Norte 23 Norte 0 -- -- 47
2020-03-27 13:00:00 6.4 10 Nordeste 20 Nordeste 0 -- -- 52
2020-03-27 12:00:00 6 3 Sudeste 12 Nordeste 0 -- -- 55
2020-03-27 11:00:00 4.4 3 Oeste 8 Sur 0 -- -- 64
2020-03-27 10:00:00 2.1 5 Nordeste 11 Nordeste 0 -- -- 68
2020-03-27 09:00:00 -1.1 0 Calma 3 Sur 0 -- -- 81
2020-03-27 08:00:00 -3 0 Calma 4 Sur 0 -- -- 83
2020-03-27 07:00:00 -3.4 0 Calma 2 Oeste 0 -- -- 82
2020-03-27 06:00:00 -3.3 0 Calma 2 Noroeste 0 -- -- 81
2020-03-27 05:00:00 -3.6 0 Calma 6 Sudeste 0 -- -- 81
2020-03-27 04:00:00 -3.7 0 Calma 6 Sudoeste 0 -- -- 80
2020-03-27 03:00:00 -3.2 2 Sudeste 5 Este 0 -- -- 77
2020-03-27 02:00:00 -2.3 0 Calma 7 Noroeste 0 -- -- 74
2020-03-27 01:00:00 -1.1 3 Noroeste 14 Norte 0 -- -- 69
2020-03-27 00:00:00 -0.1 6 Norte 21 Noroeste 0 -- -- 67
2020-03-26 23:00:00 0.2 10 Nordeste 22 Norte 0 -- -- 64
2020-03-26 22:00:00 0.5 7 Sudeste 19 Norte 0 -- -- 62
2020-03-26 21:00:00 1.5 5 Norte 22 Noroeste 0 -- -- 59
2020-03-26 20:00:00 2.3 8 Noroeste 29 Norte 0 -- -- 56
2020-03-26 19:00:00 3.7 9 Norte 30 Noroeste 0 -- -- 53
2020-03-26 18:00:00 5 16 Noroeste 40 Noroeste 0 -- -- 48
2020-03-26 17:00:00 5.3 18 Noroeste 37 Noroeste 0 -- -- 46
2020-03-26 16:00:00 5.9 20 Noroeste 48 Noroeste 0 -- -- 47
2020-03-26 15:00:00 5.7 26 Noroeste 48 Noroeste 0 -- -- 51
2020-03-26 14:00:00 5.3 14 Norte 48 Noroeste 0 -- -- 51
2020-03-26 13:00:00 4.7 19 Noroeste 39 Noroeste 0 -- -- 56
2020-03-26 12:00:00 4.1 10 Noroeste 45 Noroeste 0 -- -- 61
2020-03-26 11:00:00 2.9 21 Noroeste 36 Noroeste 0 -- -- 67
2020-03-26 10:00:00 2.9 15 Noroeste 39 Noroeste 0 -- -- 66
2020-03-26 09:00:00 3.1 14 Noroeste 37 Noroeste 0 -- -- 66
2020-03-26 08:00:00 3 11 Noroeste 32 Noroeste 0 -- -- 66
2020-03-26 07:00:00 2.8 8 Noroeste 22 Norte 0 -- -- 73
2020-03-26 06:00:00 2.3 5 Oeste 19 Oeste 0 -- -- 76
2020-03-26 05:00:00 1.4 12 Oeste 24 Noroeste 0 -- -- 76
2020-03-26 04:00:00 1.7 17 Noroeste 31 Oeste 0 -- -- 69
2020-03-26 03:00:00 1.1 13 Oeste 28 Oeste 0 -- -- 69
2020-03-26 02:00:00 1.7 6 Norte 24 Sudeste 0 -- -- 56
2020-03-26 01:00:00 1.7 5 Nordeste 26 Noroeste 0 -- -- 66
2020-03-26 00:00:00 3.2 10 Noroeste 27 Noroeste 0 -- -- 68
2020-03-25 23:00:00 3.5 8 Noroeste 19 Norte 0 -- -- 72
2020-03-25 22:00:00 4.9 8 Norte 24 Norte 0 -- -- 71
2020-03-25 21:00:00 5.4 5 Norte 15 Norte 0 -- -- 80
2020-03-25 20:00:00 7.1 4 Norte 25 Noroeste 0 -- -- 65
2020-03-25 19:00:00 9 9 Noroeste 22 Norte 0 -- -- 51
2020-03-25 18:00:00 10.5 11 Nordeste 19 Nordeste 0 -- -- 54
2020-03-25 17:00:00 10.1 11 Nordeste 23 Nordeste 0 -- -- 56
2020-03-25 16:00:00 9.3 12 Nordeste 27 Nordeste 0 -- -- 57
2020-03-25 15:00:00 9.3 9 Nordeste 23 Nordeste 0 -- -- 63
2020-03-25 14:00:00 9.1 14 Nordeste 27 Nordeste 0 -- -- 66
2020-03-25 13:00:00 9.1 14 Nordeste 29 Nordeste 0 -- -- 65
2020-03-25 12:00:00 8.8 8 Norte 26 Noroeste 0 -- -- 60
2020-03-25 11:00:00 7.9 8 Noroeste 20 Norte 0 -- -- 64
2020-03-25 10:00:00 6.3 8 Nordeste 16 Nordeste 0 -- -- 81
2020-03-25 09:00:00 1.7 0 Calma 2 Oeste 0 -- -- 90
2020-03-25 08:00:00 0.3 0 Calma 4 Oeste 0 -- -- 90
2020-03-25 07:00:00 -0.4 0 Calma 3 Este 0 -- -- 90
2020-03-25 06:00:00 -0.6 0 Calma 2 Sur 0 -- -- 89
2020-03-25 05:00:00 0.2 0 Calma 2 Sudoeste 0 -- -- 89
2020-03-25 04:00:00 1 0 Calma 3 Este 0 -- -- 88
2020-03-25 03:00:00 2 0 Calma 4 Sudoeste 0 -- -- 88
2020-03-25 02:00:00 2.6 0 Calma 4 Sur 0 -- -- 87
2020-03-25 01:00:00 2.8 0 Calma 5 Sur 0 -- -- 86
2020-03-25 00:00:00 3.4 0 Calma 5 Noroeste 0 -- -- 84
2020-03-24 23:00:00 4.1 0 Calma 4 Sur 0 -- -- 84
2020-03-24 22:00:00 4.2 0 Calma 5 Sur 0 -- -- 82
2020-03-24 21:00:00 5.2 3 Sudeste 6 Sur 0 -- -- 78
2020-03-24 20:00:00 7.1 0 Calma 6 Sur 0 -- -- 74
2020-03-24 19:00:00 9.2 2 Sudeste 5 Sudoeste 0 -- -- 64
2020-03-24 18:00:00 10.2 2 Este 9 Nordeste 0 -- -- 58
2020-03-24 17:00:00 9.5 5 Nordeste 23 Este 0 -- -- 62
2020-03-24 16:00:00 10.6 11 Este 22 Nordeste 0 -- -- 56
2020-03-24 15:00:00 8.9 11 Este 18 Este 0 -- -- 66
2020-03-24 14:00:00 8.3 8 Nordeste 18 Nordeste 0 -- -- 73
2020-03-24 13:00:00 7.9 8 Nordeste 18 Nordeste 0 -- -- 73
2020-03-24 12:00:00 7.1 7 Nordeste 17 Nordeste 0 -- -- 78
2020-03-24 11:00:00 6.6 9 Nordeste 17 Este 0 -- -- 77
2020-03-24 10:00:00 6.7 11 Este 21 Sudeste 0 -- -- 77
2020-03-24 09:00:00 6.6 6 Este 14 Este 0 -- -- 76
2020-03-24 08:00:00 5.1 4 Este 9 Este 0 -- -- 84
2020-03-24 07:00:00 4.8 5 Este 10 Nordeste 0 -- -- 87
2020-03-24 06:00:00 4.7 5 Este 14 Sudeste 0 -- -- 85
2020-03-24 05:00:00 4.7 0 Calma 4 Este 0 -- -- 85
2020-03-24 04:00:00 6.1 0 Calma 15 Este 0 -- -- 83
2020-03-24 03:00:00 6.4 12 Este 23 Este 0 -- -- 81
2020-03-24 02:00:00 6.5 4 Este 12 Este 0.6 -- -- 86
2020-03-24 01:00:00 6.6 7 Este 21 Sudeste 0.2 -- -- 84
2020-03-24 00:00:00 6.7 8 Este 22 Nordeste 0 -- -- 83
2020-03-23 23:00:00 6.8 8 Nordeste 19 Este 0 -- -- 84
2020-03-23 22:00:00 6.7 7 Nordeste 19 Este 0 -- -- 87
2020-03-23 21:00:00 6.6 9 Nordeste 14 Nordeste 0.2 -- -- 86
2020-03-23 20:00:00 7.1 8 Este 22 Nordeste 0 -- -- 83
2020-03-23 19:00:00 7.5 9 Nordeste 19 Nordeste 0 -- -- 81
2020-03-23 18:00:00 8.1 5 Norte 12 Nordeste 0.2 -- -- 78
2020-03-23 17:00:00 7.8 9 Nordeste 18 Nordeste 0 -- -- 80
2020-03-23 16:00:00 8.1 12 Nordeste 26 Nordeste 0 -- -- 78
2020-03-23 15:00:00 8.4 8 Nordeste 24 Este 0 -- -- 76
2020-03-23 14:00:00 9.2 10 Nordeste 22 Nordeste 0 -- -- 71
2020-03-23 13:00:00 8.6 9 Nordeste 17 Nordeste 0.4 -- -- 79
2020-03-23 12:00:00 6.8 11 Nordeste 18 Nordeste 0.4 -- -- 81
2020-03-23 11:00:00 7.3 9 Nordeste 19 Nordeste 0 -- -- 78
2020-03-23 10:00:00 7 10 Norte 16 Nordeste 0 -- -- 78
2020-03-23 09:00:00 6.4 6 Este 13 Este 0 -- -- 81
2020-03-23 08:00:00 5.8 4 Nordeste 17 Nordeste 0 -- -- 85
2020-03-23 07:00:00 5.7 9 Nordeste 20 Nordeste 0 -- -- 85
2020-03-23 06:00:00 5.2 2 Nordeste 9 Norte 0.4 -- -- 87
2020-03-23 05:00:00 5.4 6 Nordeste 12 Nordeste 0 -- -- 85
2020-03-23 04:00:00 5.1 8 Nordeste 17 Nordeste 0 -- -- 86
2020-03-23 03:00:00 2.3 0 Calma 5 Sudeste 0 -- -- 88
2020-03-23 02:00:00 1.7 0 Calma 2 Sur 0 -- -- 87
2020-03-23 01:00:00 1.2 0 Calma 3 Sudoeste 0 -- -- 86
2020-03-23 00:00:00 2.1 0 Calma 4 Oeste 0 -- -- 85
2020-03-22 23:00:00 2.1 0 Calma 6 Sur 0 -- -- 84
2020-03-22 22:00:00 2.9 0 Calma 4 Noroeste 0 -- -- 81
2020-03-22 21:00:00 4.7 0 Calma 4 Sudoeste 0 -- -- 77
2020-03-22 20:00:00 6.6 0 Calma 10 Nordeste 0 -- -- 70
2020-03-22 19:00:00 8.8 4 Nordeste 14 Nordeste 0 -- -- 61
2020-03-22 18:00:00 10 9 Nordeste 24 Nordeste 0 -- -- 58
2020-03-22 17:00:00 10.4 11 Nordeste 24 Norte 0 -- -- 55
2020-03-22 16:00:00 10.4 8 Nordeste 27 Este 0 -- -- 59
2020-03-22 15:00:00 10.5 9 Este 23 Este 0 -- -- 58
2020-03-22 14:00:00 10.7 10 Este 21 Este 0 -- -- 56
2020-03-22 13:00:00 10.4 7 Este 20 Nordeste 0 -- -- 59
2020-03-22 12:00:00 9.5 13 Nordeste 21 Nordeste 0 -- -- 59
2020-03-22 11:00:00 9 9 Nordeste 17 Nordeste 0 -- -- 65
2020-03-22 10:00:00 8.2 3 Noroeste 8 Noroeste 0 -- -- 73
2020-03-22 09:00:00 6 3 Sudeste 4 Sur 0 -- -- 87
2020-03-22 08:00:00 4.3 0 Calma 2 Oeste 0 -- -- 89
2020-03-22 07:00:00 3.9 0 Calma 2 Sudeste 0 -- -- 88
2020-03-22 06:00:00 4 0 Calma 4 Sur 0 -- -- 88
2020-03-22 05:00:00 3.9 0 Calma 3 Norte 0 -- -- 87
2020-03-22 04:00:00 4.9 0 Calma 4 Nordeste 0 -- -- 85
2020-03-22 03:00:00 5.8 0 Calma 4 Norte 0 -- -- 84
2020-03-22 02:00:00 6.1 3 Norte 7 Norte 0 -- -- 84
2020-03-22 01:00:00 6.6 0 Calma 6 Este 0 -- -- 84
2020-03-22 00:00:00 7.2 3 Sudeste 6 Sudeste 0 -- -- 83
2020-03-21 23:00:00 7.6 0 Calma 3 Nordeste 0 -- -- 81
2020-03-21 22:00:00 7.6 0 Calma 10 Nordeste 0 -- -- 81
2020-03-21 21:00:00 7.8 3 Este 10 Nordeste 0 -- -- 79
2020-03-21 20:00:00 8.7 2 Sur 11 Sudeste 0 -- -- 72
2020-03-21 19:00:00 9.6 6 Sur 12 Sudeste 0 -- -- 70
2020-03-21 18:00:00 10.4 6 Sudeste 19 Sudeste 0 -- -- 65
2020-03-21 17:00:00 10.9 7 Sudeste 17 Sudeste 0 -- -- 60
2020-03-21 16:00:00 10.8 4 Sur 24 Sudoeste 0 -- -- 61
2020-03-21 15:00:00 10 12 Sudoeste 22 Sudoeste 0 -- -- 66
2020-03-21 14:00:00 10.3 12 Sur 30 Sudoeste 0 -- -- 65
2020-03-21 13:00:00 10.4 9 Sudeste 21 Sudeste 0 -- -- 65
2020-03-21 12:00:00 9.6 9 Sudeste 19 Sudeste 0 -- -- 67
2020-03-21 11:00:00 7.9 8 Sudeste 14 Este 0 -- -- 78
2020-03-21 10:00:00 5.8 7 Nordeste 12 Nordeste 0 -- -- 80
2020-03-21 09:00:00 4.1 0 Calma 3 Noroeste 0 -- -- 87
2020-03-21 08:00:00 1.7 0 Calma 4 Este 0 -- -- 89
2020-03-21 07:00:00 1.1 0 Calma 4 Norte 0 -- -- 89
2020-03-21 06:00:00 1 0 Calma 4 Oeste 0 -- -- 87
2020-03-21 05:00:00 2 3 Sudeste 6 Sur 0 -- -- 86
2020-03-21 04:00:00 3.8 0 Calma 6 Nordeste 0 -- -- 85
2020-03-21 03:00:00 5.4 3 Norte 10 Nordeste 0 -- -- 82
2020-03-21 02:00:00 6.5 0 Calma 6 Norte 0 -- -- 82
2020-03-21 01:00:00 6.9 3 Este 8 Nordeste 0 -- -- 85
2020-03-21 00:00:00 7 0 Calma 4 Sur 0 -- -- 85
2020-03-20 23:00:00 6.9 0 Calma 6 Sur 0 -- -- 85
2020-03-20 22:00:00 7 2 Sudeste 8 Sudoeste 0 -- -- 84
2020-03-20 21:00:00 7.3 0 Calma 10 Nordeste 0 -- -- 81
2020-03-20 20:00:00 7.7 4 Este 13 Este 0 -- -- 78
2020-03-20 19:00:00 8.7 8 Sudeste 16 Sudeste 0 -- -- 75
2020-03-20 18:00:00 9.8 8 Sudeste 13 Este 0 -- -- 72
2020-03-20 17:00:00 9.2 8 Sudeste 15 Sudeste 0 -- -- 76
2020-03-20 16:00:00 10 10 Sudeste 22 Sudeste 0 -- -- 72
2020-03-20 15:00:00 11.3 17 Sudeste 26 Sudeste 0 -- -- 68
2020-03-20 14:00:00 11.9 12 Sudeste 24 Sudeste 0 -- -- 63
2020-03-20 13:00:00 11 14 Sudeste 23 Sudeste 0 -- -- 63
2020-03-20 12:00:00 10.4 11 Sudeste 23 Sudeste 0 -- -- 62
2020-03-20 11:00:00 8.6 9 Este 15 Este 0 -- -- 65
2020-03-20 10:00:00 3.8 0 Calma 4 Sudeste 0 -- -- 84
2020-03-20 09:00:00 0.4 2 Sudeste 4 Este 0 -- -- 89
2020-03-20 08:00:00 -1.1 0 Calma 4 Sur 0 -- -- 90
2020-03-20 07:00:00 -1.3 0 Calma 3 Sudoeste 0 -- -- 89
2020-03-20 06:00:00 -1 0 Calma 4 Sudoeste 0 -- -- 89
2020-03-20 05:00:00 -0.3 0 Calma 4 Sudoeste 0 -- -- 89
2020-03-20 04:00:00 0.1 0 Calma 2 Sudeste 0 -- -- 88
2020-03-20 03:00:00 0.8 0 Calma 4 Sudeste 0 -- -- 88
2020-03-20 02:00:00 1.4 0 Calma 4 Sudeste 0 -- -- 88
2020-03-20 01:00:00 1.8 2 Sur 4 Sur 0 -- -- 88
2020-03-20 00:00:00 2.4 0 Calma 4 Sudeste 0 -- -- 86
2020-03-19 23:00:00 3.6 2 Noroeste 5 Noroeste 0 -- -- 86
2020-03-19 22:00:00 4.8 0 Calma 4 Norte 0 -- -- 83
2020-03-19 21:00:00 6.3 2 Norte 6 Sur 0 -- -- 80
2020-03-19 20:00:00 7.8 2 Nordeste 13 Nordeste 0 -- -- 78
2020-03-19 19:00:00 9.4 6 Nordeste 16 Nordeste 0 -- -- 74
2020-03-19 18:00:00 10.6 10 Nordeste 19 Este 0 -- -- 65
2020-03-19 17:00:00 11.8 11 Nordeste 20 Este 0 -- -- 62
2020-03-19 16:00:00 12.8 6 Este 19 Este 0 -- -- 52
2020-03-19 15:00:00 12.8 10 Sudeste 22 Sudeste 0 -- -- 54
2020-03-19 14:00:00 13.4 12 Sudeste 25 Sudeste 0 -- -- 56
2020-03-19 13:00:00 12.9 11 Sudeste 21 Sudeste 0 -- -- 57
2020-03-19 12:00:00 12.1 9 Sudeste 17 Sudeste 0 -- -- 57
2020-03-19 11:00:00 10.1 10 Sudeste 16 Sudeste 0 -- -- 66
2020-03-19 10:00:00 5.1 0 Calma 2 Este 0 -- -- 87
2020-03-19 09:00:00 2.3 0 Calma 3 Sudoeste 0 -- -- 90
2020-03-19 08:00:00 1 0 Calma 4 Sur 0 -- -- 91
2020-03-19 07:00:00 1 0 Calma 3 Sur 0 -- -- 90
2020-03-19 06:00:00 1.6 0 Calma 2 Sudeste 0 -- -- 91
2020-03-19 05:00:00 2.1 0 Calma 2 Sudoeste 0 -- -- 91
2020-03-19 04:00:00 2.7 0 Calma 4 Sudoeste 0 -- -- 91
2020-03-19 03:00:00 3.6 0 Calma 3 Sur 0 -- -- 90
2020-03-19 02:00:00 4.7 2 Sur 5 Sur 0 -- -- 90
2020-03-19 01:00:00 6 3 Sur 4 Sur 0 -- -- 90
2020-03-19 00:00:00 6.8 3 Sur 8 Sur 0 -- -- 90
2020-03-18 23:00:00 7.8 4 Sur 8 Sur 0 -- -- 89
2020-03-18 22:00:00 8.4 4 Sur 6 Sur 0 -- -- 88
2020-03-18 21:00:00 9.2 2 Sudeste 5 Sudeste 0 -- -- 88
2020-03-18 20:00:00 9.8 0 Calma 10 Sudeste 0 -- -- 87
2020-03-18 19:00:00 10.5 3 Este 14 Nordeste 0 -- -- 86
2020-03-18 18:00:00 11.7 7 Nordeste 18 Nordeste 0 -- -- 82
2020-03-18 17:00:00 14 10 Nordeste 16 Nordeste 0 -- -- 73
2020-03-18 16:00:00 14.3 6 Nordeste 15 Nordeste 0 -- -- 72
2020-03-18 15:00:00 14.8 4 Este 13 Este 0 -- -- 63
2020-03-18 14:00:00 14.4 0 Calma 8 Este 0 -- -- 58
2020-03-18 13:00:00 13.4 0 Calma 8 Sudoeste 0 -- -- 58
2020-03-18 12:00:00 10.8 0 Calma 9 Sur 0 -- -- 70
2020-03-18 11:00:00 7.7 6 Sudeste 8 Sudeste 0 -- -- 86
2020-03-18 10:00:00 5.1 2 Sudeste 4 Sur 0 -- -- 93
2020-03-18 09:00:00 2.3 0 Calma 5 Este 0 -- -- 93
2020-03-18 08:00:00 0.7 3 Sudeste 5 Sur 0 -- -- 92
2020-03-18 07:00:00 0.6 0 Calma 5 Sudeste 0 -- -- 92
2020-03-18 06:00:00 0.8 0 Calma 5 Sudeste 0 -- -- 92
2020-03-18 05:00:00 1.6 0 Calma 2 Sudeste 0 -- -- 92
2020-03-18 04:00:00 2.1 2 Sur 5 Sur 0 -- -- 91
2020-03-18 03:00:00 3 0 Calma 5 Sur 0 -- -- 92
2020-03-18 02:00:00 3.4 3 Sur 6 Sur 0 -- -- 92
2020-03-18 01:00:00 3.6 0 Calma 3 Sur 0 -- -- 91
2020-03-18 00:00:00 3.9 0 Calma 8 Sur 0 -- -- 92
2020-03-17 23:00:00 4.5 0 Calma 9 Sudeste 0 -- -- 91
2020-03-17 22:00:00 4.9 0 Calma 5 Sudoeste 0 -- -- 91
2020-03-17 21:00:00 4.8 0 Calma 8 Sur 0 -- -- 90
2020-03-17 20:00:00 6.2 0 Calma 10 Nordeste 0 -- -- 90
2020-03-17 19:00:00 6.7 6 Nordeste 13 Nordeste 0 -- -- 91
2020-03-17 18:00:00 5.9 0 Calma 5 Este 0 -- -- 91
2020-03-17 17:00:00 5.1 3 Sur 8 Sudeste 0.2 -- -- 91
2020-03-17 16:00:00 5.1 5 Sur 7 Sur 0 -- -- 89
2020-03-17 15:00:00 5.6 4 Sudoeste 10 Nordeste 0 -- -- 91
2020-03-17 14:00:00 6 5 Norte 14 Nordeste 0 -- -- 91
2020-03-17 13:00:00 5.8 9 Nordeste 14 Nordeste 0 -- -- 91
2020-03-17 12:00:00 5.5 6 Nordeste 17 Nordeste 0 -- -- 92
2020-03-17 11:00:00 5.1 6 Nordeste 13 Nordeste 0.2 -- -- 91
2020-03-17 10:00:00 5 6 Nordeste 17 Norte 0.4 -- -- 91
2020-03-17 09:00:00 4.7 7 Nordeste 15 Nordeste 0.6 -- -- 91
2020-03-17 08:00:00 4.5 7 Nordeste 15 Norte 0.6 -- -- 91
2020-03-17 07:00:00 4.2 3 Nordeste 12 Nordeste 1 -- -- 91
2020-03-17 06:00:00 4 6 Nordeste 19 Nordeste 1.2 -- -- 91
2020-03-17 05:00:00 4 9 Nordeste 18 Nordeste 0.6 -- -- 92
2020-03-17 04:00:00 2.8 0 Calma 7 Sur 0.6 -- -- 92
2020-03-17 03:00:00 2.8 0 Calma 7 Sur 1 -- -- 92
2020-03-17 02:00:00 2.8 3 Sur 8 Sudoeste 0.8 -- -- 92
2020-03-17 01:00:00 3.1 3 Sur 15 Nordeste 1.2 -- -- 91
2020-03-17 00:00:00 3.5 5 Nordeste 13 Norte 2.6 -- -- 92
2020-03-16 23:00:00 2.7 2 Sur 15 Norte 1.8 -- -- 91
2020-03-16 22:00:00 3.1 4 Nordeste 23 Nordeste 9.8 -- -- 91
2020-03-16 21:00:00 3.3 9 Norte 33 Norte 8.6 -- -- 91
2020-03-16 20:00:00 3.1 14 Nordeste 31 Nordeste 5.8 -- -- 90
2020-03-16 19:00:00 2.7 16 Nordeste 30 Nordeste 5.4 -- -- 90
2020-03-16 18:00:00 2.6 10 Nordeste 27 Norte 4 -- -- 89
2020-03-16 17:00:00 2 14 Nordeste 32 Norte 3.8 -- -- 89
2020-03-16 16:00:00 2 13 Nordeste 27 Nordeste 2.6 -- -- 87
2020-03-16 15:00:00 2 12 Nordeste 23 Nordeste 1.8 -- -- 83
2020-03-16 14:00:00 1.9 8 Nordeste 15 Nordeste 1.8 -- -- 84
2020-03-16 13:00:00 1.7 3 Sur 7 Sudeste 1.8 -- -- 85
2020-03-16 12:00:00 1.6 0 Calma 9 Noroeste 1.6 -- -- 87
2020-03-16 11:00:00 0.9 5 Noroeste 13 Noroeste 0.8 -- -- 88
2020-03-16 10:00:00 0.6 0 Calma 0 Calma 0 -- -- 89
2020-03-16 09:00:00 0.5 0 Calma 0 Calma 0 -- -- 90
2020-03-16 08:00:00 0.4 0 Calma -- -- 0 -- -- 90
2020-03-16 07:00:00 0.3 0 Calma -- -- 0 -- -- 90
2020-03-16 06:00:00 0.2 0 Calma -- -- 0 -- -- 90
2020-03-16 05:00:00 0.3 0 Calma -- -- 0 -- -- 90
2020-03-16 04:00:00 0.5 0 Calma 20 Nordeste 1 -- -- 89
2020-03-16 03:00:00 2.3 13 Nordeste 21 Nordeste 4.8 -- -- 87
2020-03-16 02:00:00 3.8 6 Nordeste 16 Noroeste 6.2 -- -- 89
2020-03-16 01:00:00 5.6 9 Nordeste 16 Nordeste 1.6 -- -- 88
2020-03-16 00:00:00 5.8 0 Calma 10 Este 1.4 -- -- 86
2020-03-15 23:00:00 6.2 7 Norte 38 Sur 4.8 -- -- 85
2020-03-15 22:00:00 7.9 10 Sur 19 Sudoeste 0.2 -- -- 82
2020-03-15 21:00:00 7.2 5 Sur 37 Sudoeste 2.6 -- -- 88
2020-03-15 20:00:00 7.5 18 Oeste 45 Sudoeste 2.8 -- -- 88
2020-03-15 19:00:00 9.3 3 Nordeste 16 Norte 0 -- -- 81
2020-03-15 18:00:00 9.7 7 Nordeste 25 Nordeste 0 -- -- 79
2020-03-15 17:00:00 9.8 6 Nordeste 18 Norte 1 -- -- 78
2020-03-15 16:00:00 10.6 5 Norte 23 Sudoeste 2.8 -- -- 75
2020-03-15 15:00:00 -- 17 Oeste 32 Oeste 0.4 -- -- --
2020-03-15 14:00:00 16.8 14 Sur 28 Sudoeste 0 -- -- 51
2020-03-15 13:00:00 16.2 17 Sur 35 Sur 0 -- -- 53
2020-03-15 12:00:00 15 9 Sudoeste 23 Sudoeste 0 -- -- 53
2020-03-15 11:00:00 13.1 14 Sudoeste 23 Sudoeste 0 -- -- 57
2020-03-15 10:00:00 11.3 8 Sudoeste 14 Sudoeste 0 -- -- 60
2020-03-15 09:00:00 7.9 2 Sudoeste 12 Sudoeste 0 -- -- 61
2020-03-15 08:00:00 0.9 3 Sudoeste 7 Sudoeste 0 -- -- 71
2020-03-15 07:00:00 0.3 0 Calma 4 Sur 0 -- -- 72
2020-03-15 06:00:00 -0.4 0 Calma 5 Sudoeste 0 -- -- 77
2020-03-15 05:00:00 -0.7 0 Calma 12 Sudeste 0 -- -- 79
2020-03-15 04:00:00 -0.9 0 Calma 3 Sur 0 -- -- 81
2020-03-15 03:00:00 -0.9 0 Calma 2 Sudeste 0 -- -- 80
2020-03-15 02:00:00 -0.4 0 Calma 4 Sudoeste 0 -- -- 78
2020-03-15 01:00:00 0 0 Calma 3 Sur 0 -- -- 77
2020-03-15 00:00:00 1.1 0 Calma 4 Noroeste 0 -- -- 74
2020-03-14 23:00:00 1.9 3 Sur 5 Sur 0 -- -- 72
2020-03-14 22:00:00 3.2 2 Sur 6 Sudoeste 0 -- -- 68
2020-03-14 21:00:00 5.5 0 Calma 5 Este 0 -- -- 60
2020-03-14 20:00:00 8.4 0 Calma 9 Este 0 -- -- 50
2020-03-14 19:00:00 11.5 4 Este 19 Nordeste 0 -- -- 37
2020-03-14 18:00:00 13.9 8 Nordeste 19 Nordeste 0 -- -- 30
2020-03-14 17:00:00 14.4 7 Nordeste 18 Norte 0 -- -- 30
2020-03-14 16:00:00 14.9 10 Nordeste 21 Nordeste 0 -- -- 33
2020-03-14 15:00:00 14.5 10 Nordeste 20 Norte 0 -- -- 32
2020-03-14 14:00:00 14 11 Nordeste 19 Nordeste 0 -- -- 33
2020-03-14 13:00:00 13.9 6 Nordeste 20 Nordeste 0 -- -- 28
2020-03-14 12:00:00 12.7 6 Norte 16 Nordeste 0 -- -- 25
2020-03-14 11:00:00 10.5 5 Este 10 Este 0 -- -- 29
2020-03-14 10:00:00 5.6 2 Sudeste 5 Este 0 -- -- 67
2020-03-14 09:00:00 0.5 2 Sudeste 3 Este 0 -- -- 91
2020-03-14 08:00:00 -1.8 0 Calma 2 Sudeste 0 -- -- 90
2020-03-14 07:00:00 -1 0 Calma 4 Sur 0 -- -- 90
2020-03-14 06:00:00 0.3 0 Calma 4 Sur 0 -- -- 90
2020-03-14 05:00:00 2 2 Noroeste 5 Oeste 0 -- -- 90
2020-03-14 04:00:00 3.5 2 Sur 5 Oeste 0 -- -- 89
2020-03-14 03:00:00 4 2 Oeste 9 Sudoeste 0 -- -- 88
2020-03-14 02:00:00 4.6 3 Oeste 13 Sudoeste 0 -- -- 88
2020-03-14 01:00:00 5.3 5 Oeste 11 Sudoeste 0 -- -- 86
2020-03-14 00:00:00 5.7 6 Sudoeste 10 Sudoeste 0 -- -- 85
2020-03-13 23:00:00 6.2 4 Oeste 10 Sudoeste 0 -- -- 83
2020-03-13 22:00:00 6.6 3 Sudoeste 11 Nordeste 0 -- -- 81
2020-03-13 21:00:00 6.4 4 Nordeste 12 Nordeste 0 -- -- 79
2020-03-13 20:00:00 6.6 6 Nordeste 20 Nordeste 0 -- -- 79
2020-03-13 19:00:00 7.4 12 Nordeste 20 Nordeste 0 -- -- 76
2020-03-13 18:00:00 8.5 10 Nordeste 23 Nordeste 0 -- -- 72
2020-03-13 17:00:00 9.6 13 Nordeste 21 Nordeste 0 -- -- 68
2020-03-13 16:00:00 10.7 12 Nordeste 20 Nordeste 0 -- -- 65
2020-03-13 15:00:00 11.9 7 Nordeste 23 Nordeste 0 -- -- 60
2020-03-13 14:00:00 11.7 8 Norte 16 Norte 0 -- -- 60
2020-03-13 13:00:00 10.9 9 Nordeste 19 Este 0 -- -- 61
2020-03-13 12:00:00 10 12 Nordeste 19 Nordeste 0 -- -- 65
2020-03-13 11:00:00 8.8 9 Nordeste 18 Nordeste 0 -- -- 71
2020-03-13 10:00:00 7.8 11 Nordeste 18 Nordeste 0 -- -- 75
2020-03-13 09:00:00 7.1 3 Sudeste 10 Nordeste 0 -- -- 78
2020-03-13 08:00:00 6.2 4 Nordeste 26 Nordeste 0 -- -- 81
2020-03-13 07:00:00 6.3 8 Nordeste 19 Noroeste 0 -- -- 82
2020-03-13 06:00:00 6.6 3 Norte 20 Nordeste 0 -- -- 81
2020-03-13 05:00:00 6.6 12 Nordeste 23 Nordeste 0 -- -- 84
2020-03-13 04:00:00 7 4 Nordeste 12 Nordeste 0 -- -- 83
2020-03-13 03:00:00 7.3 5 Nordeste 12 Nordeste 0 -- -- 83
2020-03-13 02:00:00 7.7 4 Este 23 Noroeste 0 -- -- 82
2020-03-13 01:00:00 7.9 10 Noroeste 20 Noroeste 0 -- -- 80
2020-03-13 00:00:00 7.8 10 Nordeste 17 Nordeste 0 -- -- 83
2020-03-12 23:00:00 8.3 8 Nordeste 16 Nordeste 0 -- -- 83
2020-03-12 22:00:00 8.8 10 Nordeste 17 Norte 0 -- -- 82
2020-03-12 21:00:00 9.2 8 Norte 20 Nordeste 0 -- -- 81
2020-03-12 20:00:00 10.3 9 Nordeste 20 Nordeste 0 -- -- 77
2020-03-12 19:00:00 12.3 11 Nordeste 22 Nordeste 0 -- -- 70
2020-03-12 18:00:00 13.9 13 Nordeste 22 Nordeste 0 -- -- 65
2020-03-12 17:00:00 16 12 Nordeste 23 Nordeste 0 -- -- 58
2020-03-12 16:00:00 17.4 14 Nordeste 29 Nordeste 0 -- -- 54
2020-03-12 15:00:00 20.5 16 Nordeste 29 Nordeste 0 -- -- 45
2020-03-12 14:00:00 22.3 11 Sudoeste 30 Sudoeste 0 -- -- 39
2020-03-12 13:00:00 20.7 13 Sur 26 Sur 0 -- -- 40
2020-03-12 12:00:00 19.8 12 Sur 21 Sudoeste 0 -- -- 39
2020-03-12 11:00:00 18.9 2 Sur 14 Sur 0 -- -- 47
2020-03-12 10:00:00 14 0 Calma 3 Noroeste 0 -- -- 60
2020-03-12 09:00:00 10 0 Calma 6 Sudoeste 0 -- -- 73
2020-03-12 08:00:00 7.3 0 Calma 0 Calma 0 -- -- 76
2020-03-12 07:00:00 6.9 0 Calma 9 Sur 0 -- -- 76
2020-03-12 06:00:00 6.4 0 Calma 4 Sur 0 -- -- 78
2020-03-12 05:00:00 6.4 0 Calma 4 Sudoeste 0 -- -- 78
2020-03-12 04:00:00 6.6 2 Sudoeste 5 Sudoeste 0 -- -- 75
2020-03-12 03:00:00 7.4 2 Sudoeste 7 Sudoeste 0 -- -- 72
2020-03-12 02:00:00 7.8 0 Calma 7 Sur 0 -- -- 71
2020-03-12 01:00:00 8.5 0 Calma 5 Sur 0 -- -- 71
2020-03-12 00:00:00 9.3 0 Calma 7 Sudoeste 0 -- -- 67
2020-03-11 23:00:00 9.6 0 Calma 7 Sur 0 -- -- 66
2020-03-11 22:00:00 10.7 0 Calma 8 Sudoeste 0 -- -- 62
2020-03-11 21:00:00 11.7 3 Oeste 9 Sudoeste 0 -- -- 58
2020-03-11 20:00:00 13.6 0 Calma 5 Noroeste 0 -- -- 53
2020-03-11 19:00:00 17 0 Calma 7 Oeste 0 -- -- 50
2020-03-11 18:00:00 20.3 4 Nordeste 17 Este 0 -- -- 39
2020-03-11 17:00:00 21.1 6 Nordeste 32 Sudoeste 0 -- -- 38
2020-03-11 16:00:00 22.5 18 Sudoeste 33 Sudoeste 0 -- -- 29
2020-03-11 15:00:00 22.3 14 Sudoeste 31 Sudoeste 0 -- -- 28
2020-03-11 14:00:00 20.8 14 Sur 25 Sur 0 -- -- 28
2020-03-11 13:00:00 19.7 12 Sur 21 Sudoeste 0 -- -- 32
2020-03-11 12:00:00 18 13 Sudeste 19 Sudeste 0 -- -- 35
2020-03-11 11:00:00 13.4 0 Calma 5 Sudeste 0 -- -- 59
2020-03-11 10:00:00 7.8 0 Calma 4 Este 0 -- -- 74
2020-03-11 09:00:00 2.6 0 Calma 4 Sudeste 0 -- -- 88
2020-03-11 08:00:00 -0.2 3 Sur 7 Sur 0 -- -- 87
2020-03-11 07:00:00 0.3 3 Sudoeste 5 Sudoeste 0 -- -- 87
2020-03-11 06:00:00 0.5 0 Calma 4 Sur 0 -- -- 85
2020-03-11 05:00:00 1.1 0 Calma 4 Sudoeste 0 -- -- 86
2020-03-11 04:00:00 1.4 0 Calma 4 Sur 0 -- -- 86
2020-03-11 03:00:00 2 0 Calma 5 Sur 0 -- -- 85
2020-03-11 02:00:00 2.8 0 Calma 5 Sudoeste 0 -- -- 85
2020-03-11 01:00:00 3.4 0 Calma 0 Calma 0 -- -- 84
2020-03-11 00:00:00 4.4 0 Calma 2 Este 0 -- -- 83
2020-03-10 23:00:00 5.4 0 Calma 6 Sudoeste 0 -- -- 80
2020-03-10 22:00:00 6.8 0 Calma 3 Oeste 0 -- -- 78
2020-03-10 21:00:00 8.3 0 Calma 4 Sudoeste 0 -- -- 74
2020-03-10 20:00:00 11.2 0 Calma 8 Nordeste 0 -- -- 65
2020-03-10 19:00:00 14.4 4 Nordeste 15 Nordeste 0 -- -- 53
2020-03-10 18:00:00 16 8 Nordeste 26 Nordeste 0 -- -- 47
2020-03-10 17:00:00 16.9 16 Nordeste 24 Norte 0 -- -- 43
2020-03-10 16:00:00 20.2 7 Oeste 24 Sur 0 -- -- 39
2020-03-10 15:00:00 20.4 12 Sur 21 Sudoeste 0 -- -- 43
2020-03-10 14:00:00 19.6 3 Sudeste 14 Norte 0 -- -- 40
2020-03-10 13:00:00 18.6 9 Noroeste 20 Oeste 0 -- -- 42
2020-03-10 12:00:00 17.5 13 Sudoeste 22 Sudoeste 0 -- -- 46
2020-03-10 11:00:00 15.4 10 Sudoeste 19 Oeste 0 -- -- 42
2020-03-10 10:00:00 13.2 10 Oeste 21 Oeste 0 -- -- 33
2020-03-10 09:00:00 10.8 10 Sudoeste 22 Sudoeste 0 -- -- 32
2020-03-10 08:00:00 9.3 13 Sudoeste 23 Sudoeste 0 -- -- 36
2020-03-10 07:00:00 7.2 9 Sudoeste 22 Sudoeste 0 -- -- 45
2020-03-10 06:00:00 4.6 4 Noroeste 9 Noroeste 0 -- -- 58
2020-03-10 05:00:00 4.2 2 Noroeste 7 Noroeste 0 -- -- 58
2020-03-10 04:00:00 3.6 3 Norte 8 Norte 0 -- -- 61
2020-03-10 03:00:00 3.4 2 Norte 5 Noroeste 0 -- -- 60
2020-03-10 02:00:00 4.2 0 Calma 10 Sudoeste 0 -- -- 60
2020-03-10 01:00:00 4.6 3 Sur 17 Sur 0 -- -- 58
2020-03-10 00:00:00 5 12 Sur 23 Sur 0 -- -- 60